sensor_id;sensor_type;location;lat;lon;timestamp;P1;durP1;ratioP1;P2;durP2;ratioP2
27199;SDS011;14714;48.106;11.546;2024-03-22T00:01:47;21.23;;;13.35;;
27199;SDS011;14714;48.106;11.546;2024-03-22T00:04:14;21.63;;;14.70;;
27199;SDS011;14714;48.106;11.546;2024-03-22T00:06:44;24.00;;;15.77;;
27199;SDS011;14714;48.106;11.546;2024-03-22T00:09:11;18.83;;;12.60;;
27199;SDS011;14714;48.106;11.546;2024-03-22T00:11:39;18.10;;;12.25;;
27199;SDS011;14714;48.106;11.546;2024-03-22T00:14:06;16.23;;;11.50;;
27199;SDS011;14714;48.106;11.546;2024-03-22T00:16:32;18.95;;;12.05;;
27199;SDS011;14714;48.106;11.546;2024-03-22T00:18:58;16.70;;;11.75;;
27199;SDS011;14714;48.106;11.546;2024-03-22T00:21:24;16.58;;;10.63;;
27199;SDS011;14714;48.106;11.546;2024-03-22T00:23:50;16.17;;;11.02;;
27199;SDS011;14714;48.106;11.546;2024-03-22T00:26:16;15.80;;;10.82;;
27199;SDS011;14714;48.106;11.546;2024-03-22T00:28:42;16.27;;;10.73;;
27199;SDS011;14714;48.106;11.546;2024-03-22T00:31:08;15.75;;;10.30;;
27199;SDS011;14714;48.106;11.546;2024-03-22T00:33:35;21.80;;;14.55;;
27199;SDS011;14714;48.106;11.546;2024-03-22T00:36:01;19.55;;;12.70;;
27199;SDS011;14714;48.106;11.546;2024-03-22T00:38:27;16.10;;;10.80;;
27199;SDS011;14714;48.106;11.546;2024-03-22T00:40:53;26.55;;;16.20;;
27199;SDS011;14714;48.106;11.546;2024-03-22T00:43:19;17.88;;;12.18;;
27199;SDS011;14714;48.106;11.546;2024-03-22T00:45:46;15.80;;;10.98;;
27199;SDS011;14714;48.106;11.546;2024-03-22T00:48:12;16.83;;;10.65;;
27199;SDS011;14714;48.106;11.546;2024-03-22T00:50:39;16.02;;;10.90;;
27199;SDS011;14714;48.106;11.546;2024-03-22T00:53:05;14.85;;;10.95;;
27199;SDS011;14714;48.106;11.546;2024-03-22T00:55:33;21.60;;;14.02;;
27199;SDS011;14714;48.106;11.546;2024-03-22T00:57:59;20.42;;;12.82;;
27199;SDS011;14714;48.106;11.546;2024-03-22T01:00:26;20.42;;;12.88;;
27199;SDS011;14714;48.106;11.546;2024-03-22T01:02:51;21.67;;;13.75;;
27199;SDS011;14714;48.106;11.546;2024-03-22T01:05:17;16.60;;;11.35;;
27199;SDS011;14714;48.106;11.546;2024-03-22T01:07:43;17.23;;;11.45;;
27199;SDS011;14714;48.106;11.546;2024-03-22T01:10:10;23.67;;;15.07;;
27199;SDS011;14714;48.106;11.546;2024-03-22T01:12:37;24.98;;;15.65;;
27199;SDS011;14714;48.106;11.546;2024-03-22T01:15:04;26.00;;;14.90;;
27199;SDS011;14714;48.106;11.546;2024-03-22T01:17:31;18.23;;;12.15;;
27199;SDS011;14714;48.106;11.546;2024-03-22T01:19:57;17.52;;;11.73;;
27199;SDS011;14714;48.106;11.546;2024-03-22T01:22:23;20.38;;;13.10;;
27199;SDS011;14714;48.106;11.546;2024-03-22T01:24:49;18.30;;;11.90;;
27199;SDS011;14714;48.106;11.546;2024-03-22T01:27:15;20.23;;;13.40;;
27199;SDS011;14714;48.106;11.546;2024-03-22T01:29:41;14.07;;;10.43;;
27199;SDS011;14714;48.106;11.546;2024-03-22T01:32:07;13.60;;;9.65;;
27199;SDS011;14714;48.106;11.546;2024-03-22T01:34:33;16.65;;;11.68;;
27199;SDS011;14714;48.106;11.546;2024-03-22T01:37:02;15.93;;;10.80;;
27199;SDS011;14714;48.106;11.546;2024-03-22T01:39:28;18.48;;;11.73;;
27199;SDS011;14714;48.106;11.546;2024-03-22T01:41:54;18.48;;;11.38;;
27199;SDS011;14714;48.106;11.546;2024-03-22T01:44:26;20.10;;;12.90;;
27199;SDS011;14714;48.106;11.546;2024-03-22T01:46:52;18.10;;;11.70;;
27199;SDS011;14714;48.106;11.546;2024-03-22T01:49:19;17.85;;;11.40;;
27199;SDS011;14714;48.106;11.546;2024-03-22T01:51:45;16.80;;;10.77;;
27199;SDS011;14714;48.106;11.546;2024-03-22T01:54:11;17.13;;;10.57;;
27199;SDS011;14714;48.106;11.546;2024-03-22T01:56:37;16.75;;;10.80;;
27199;SDS011;14714;48.106;11.546;2024-03-22T01:59:04;18.70;;;11.63;;
27199;SDS011;14714;48.106;11.546;2024-03-22T02:01:31;18.63;;;11.95;;
27199;SDS011;14714;48.106;11.546;2024-03-22T02:03:58;15.88;;;10.07;;
27199;SDS011;14714;48.106;11.546;2024-03-22T02:06:24;16.33;;;11.10;;
27199;SDS011;14714;48.106;11.546;2024-03-22T02:08:50;16.52;;;10.38;;
27199;SDS011;14714;48.106;11.546;2024-03-22T02:11:16;19.00;;;12.90;;
27199;SDS011;14714;48.106;11.546;2024-03-22T02:13:42;20.05;;;12.77;;
27199;SDS011;14714;48.106;11.546;2024-03-22T02:16:08;16.48;;;10.40;;
27199;SDS011;14714;48.106;11.546;2024-03-22T02:18:34;27.30;;;16.20;;
27199;SDS011;14714;48.106;11.546;2024-03-22T02:21:01;27.83;;;16.25;;
27199;SDS011;14714;48.106;11.546;2024-03-22T02:23:34;19.55;;;13.30;;
27199;SDS011;14714;48.106;11.546;2024-03-22T02:26:01;18.48;;;12.57;;
27199;SDS011;14714;48.106;11.546;2024-03-22T02:28:28;18.10;;;11.00;;
27199;SDS011;14714;48.106;11.546;2024-03-22T02:30:55;15.50;;;10.68;;
27199;SDS011;14714;48.106;11.546;2024-03-22T02:33:21;17.52;;;11.23;;
27199;SDS011;14714;48.106;11.546;2024-03-22T02:35:47;16.55;;;10.95;;
27199;SDS011;14714;48.106;11.546;2024-03-22T02:38:14;19.77;;;11.93;;
27199;SDS011;14714;48.106;11.546;2024-03-22T02:40:42;16.02;;;10.15;;
27199;SDS011;14714;48.106;11.546;2024-03-22T02:43:09;16.58;;;10.30;;
27199;SDS011;14714;48.106;11.546;2024-03-22T02:45:35;16.85;;;10.68;;
27199;SDS011;14714;48.106;11.546;2024-03-22T02:48:01;17.20;;;10.40;;
27199;SDS011;14714;48.106;11.546;2024-03-22T02:50:27;16.05;;;10.65;;
27199;SDS011;14714;48.106;11.546;2024-03-22T02:52:53;23.05;;;12.88;;
27199;SDS011;14714;48.106;11.546;2024-03-22T02:55:19;15.80;;;10.98;;
27199;SDS011;14714;48.106;11.546;2024-03-22T02:57:45;18.05;;;11.63;;
27199;SDS011;14714;48.106;11.546;2024-03-22T03:00:11;18.20;;;11.52;;
27199;SDS011;14714;48.106;11.546;2024-03-22T03:02:37;17.35;;;10.73;;
27199;SDS011;14714;48.106;11.546;2024-03-22T03:05:03;18.73;;;11.57;;
27199;SDS011;14714;48.106;11.546;2024-03-22T03:07:31;21.67;;;12.45;;
27199;SDS011;14714;48.106;11.546;2024-03-22T03:09:57;19.65;;;12.13;;
27199;SDS011;14714;48.106;11.546;2024-03-22T03:12:23;16.70;;;11.15;;
27199;SDS011;14714;48.106;11.546;2024-03-22T03:14:49;18.10;;;11.75;;
27199;SDS011;14714;48.106;11.546;2024-03-22T03:17:15;23.50;;;14.00;;
27199;SDS011;14714;48.106;11.546;2024-03-22T03:19:41;20.30;;;12.55;;
27199;SDS011;14714;48.106;11.546;2024-03-22T03:22:07;18.02;;;11.70;;
27199;SDS011;14714;48.106;11.546;2024-03-22T03:24:33;20.13;;;11.68;;
27199;SDS011;14714;48.106;11.546;2024-03-22T03:26:58;20.77;;;11.60;;
27199;SDS011;14714;48.106;11.546;2024-03-22T03:29:24;18.40;;;12.20;;
27199;SDS011;14714;48.106;11.546;2024-03-22T03:31:50;18.73;;;11.70;;
27199;SDS011;14714;48.106;11.546;2024-03-22T03:34:17;18.17;;;10.48;;
27199;SDS011;14714;48.106;11.546;2024-03-22T03:36:45;20.25;;;12.68;;
27199;SDS011;14714;48.106;11.546;2024-03-22T03:39:11;17.10;;;11.18;;
27199;SDS011;14714;48.106;11.546;2024-03-22T03:41:36;19.23;;;11.85;;
27199;SDS011;14714;48.106;11.546;2024-03-22T03:44:02;21.30;;;12.88;;
27199;SDS011;14714;48.106;11.546;2024-03-22T03:46:28;23.95;;;13.93;;
27199;SDS011;14714;48.106;11.546;2024-03-22T03:48:54;25.35;;;15.45;;
27199;SDS011;14714;48.106;11.546;2024-03-22T03:51:20;23.25;;;14.32;;
27199;SDS011;14714;48.106;11.546;2024-03-22T03:53:46;19.20;;;12.52;;
27199;SDS011;14714;48.106;11.546;2024-03-22T03:56:12;19.75;;;12.43;;
27199;SDS011;14714;48.106;11.546;2024-03-22T03:58:38;25.42;;;13.80;;
27199;SDS011;14714;48.106;11.546;2024-03-22T04:01:07;24.08;;;15.23;;
27199;SDS011;14714;48.106;11.546;2024-03-22T04:03:34;25.95;;;15.60;;
27199;SDS011;14714;48.106;11.546;2024-03-22T04:06:00;28.95;;;17.00;;
27199;SDS011;14714;48.106;11.546;2024-03-22T04:08:29;21.33;;;13.45;;
27199;SDS011;14714;48.106;11.546;2024-03-22T04:10:56;23.58;;;13.75;;
27199;SDS011;14714;48.106;11.546;2024-03-22T04:13:23;21.05;;;12.77;;
27199;SDS011;14714;48.106;11.546;2024-03-22T04:15:49;20.83;;;13.43;;
27199;SDS011;14714;48.106;11.546;2024-03-22T04:18:15;18.98;;;12.10;;
27199;SDS011;14714;48.106;11.546;2024-03-22T04:20:41;18.73;;;12.32;;
27199;SDS011;14714;48.106;11.546;2024-03-22T04:23:09;25.10;;;15.55;;
27199;SDS011;14714;48.106;11.546;2024-03-22T04:25:35;35.63;;;17.98;;
27199;SDS011;14714;48.106;11.546;2024-03-22T04:28:01;34.03;;;18.85;;
27199;SDS011;14714;48.106;11.546;2024-03-22T04:30:27;31.08;;;18.83;;
27199;SDS011;14714;48.106;11.546;2024-03-22T04:32:53;31.77;;;18.10;;
27199;SDS011;14714;48.106;11.546;2024-03-22T04:35:19;28.25;;;17.17;;
27199;SDS011;14714;48.106;11.546;2024-03-22T04:37:45;31.35;;;18.02;;
27199;SDS011;14714;48.106;11.546;2024-03-22T04:40:11;27.65;;;17.20;;
27199;SDS011;14714;48.106;11.546;2024-03-22T04:42:37;30.88;;;18.50;;
27199;SDS011;14714;48.106;11.546;2024-03-22T04:45:03;31.20;;;17.02;;
27199;SDS011;14714;48.106;11.546;2024-03-22T04:47:29;28.63;;;17.38;;
27199;SDS011;14714;48.106;11.546;2024-03-22T04:49:55;30.85;;;16.88;;
27199;SDS011;14714;48.106;11.546;2024-03-22T04:52:21;28.05;;;16.67;;
27199;SDS011;14714;48.106;11.546;2024-03-22T04:54:48;27.70;;;16.13;;
27199;SDS011;14714;48.106;11.546;2024-03-22T04:57:14;28.92;;;17.30;;
27199;SDS011;14714;48.106;11.546;2024-03-22T04:59:40;29.08;;;17.25;;
27199;SDS011;14714;48.106;11.546;2024-03-22T05:02:07;25.08;;;15.32;;
27199;SDS011;14714;48.106;11.546;2024-03-22T05:04:33;27.55;;;17.10;;
27199;SDS011;14714;48.106;11.546;2024-03-22T05:06:59;30.20;;;17.05;;
27199;SDS011;14714;48.106;11.546;2024-03-22T05:09:25;26.15;;;16.02;;
27199;SDS011;14714;48.106;11.546;2024-03-22T05:11:50;25.02;;;16.08;;
27199;SDS011;14714;48.106;11.546;2024-03-22T05:14:19;28.65;;;16.95;;
27199;SDS011;14714;48.106;11.546;2024-03-22T05:16:45;29.85;;;16.35;;
27199;SDS011;14714;48.106;11.546;2024-03-22T05:19:11;26.58;;;15.23;;
27199;SDS011;14714;48.106;11.546;2024-03-22T05:21:37;25.20;;;15.88;;
27199;SDS011;14714;48.106;11.546;2024-03-22T05:24:03;29.13;;;16.42;;
27199;SDS011;14714;48.106;11.546;2024-03-22T05:26:29;29.23;;;16.10;;
27199;SDS011;14714;48.106;11.546;2024-03-22T05:28:57;25.05;;;16.10;;
27199;SDS011;14714;48.106;11.546;2024-03-22T05:31:23;27.83;;;16.15;;
27199;SDS011;14714;48.106;11.546;2024-03-22T05:33:49;24.58;;;14.75;;
27199;SDS011;14714;48.106;11.546;2024-03-22T05:36:15;26.65;;;15.80;;
27199;SDS011;14714;48.106;11.546;2024-03-22T05:38:41;28.60;;;17.20;;
27199;SDS011;14714;48.106;11.546;2024-03-22T05:41:07;27.98;;;15.73;;
27199;SDS011;14714;48.106;11.546;2024-03-22T05:43:33;21.85;;;14.82;;
27199;SDS011;14714;48.106;11.546;2024-03-22T05:45:59;26.45;;;15.68;;
27199;SDS011;14714;48.106;11.546;2024-03-22T05:48:25;24.42;;;15.13;;
27199;SDS011;14714;48.106;11.546;2024-03-22T05:50:51;24.02;;;14.23;;
27199;SDS011;14714;48.106;11.546;2024-03-22T05:53:18;24.02;;;15.25;;
27199;SDS011;14714;48.106;11.546;2024-03-22T05:55:44;24.83;;;15.60;;
27199;SDS011;14714;48.106;11.546;2024-03-22T05:58:10;26.30;;;14.73;;
27199;SDS011;14714;48.106;11.546;2024-03-22T06:00:35;24.23;;;15.35;;
27199;SDS011;14714;48.106;11.546;2024-03-22T06:03:01;25.48;;;14.52;;
27199;SDS011;14714;48.106;11.546;2024-03-22T06:05:27;23.88;;;14.10;;
27199;SDS011;14714;48.106;11.546;2024-03-22T06:07:53;26.70;;;15.30;;
27199;SDS011;14714;48.106;11.546;2024-03-22T06:10:19;20.20;;;14.48;;
27199;SDS011;14714;48.106;11.546;2024-03-22T06:12:45;23.50;;;14.63;;
27199;SDS011;14714;48.106;11.546;2024-03-22T06:15:12;21.67;;;14.40;;
27199;SDS011;14714;48.106;11.546;2024-03-22T06:17:38;26.55;;;15.48;;
27199;SDS011;14714;48.106;11.546;2024-03-22T06:20:04;22.48;;;14.20;;
27199;SDS011;14714;48.106;11.546;2024-03-22T06:22:31;26.13;;;14.98;;
27199;SDS011;14714;48.106;11.546;2024-03-22T06:24:57;29.13;;;15.18;;
27199;SDS011;14714;48.106;11.546;2024-03-22T06:27:23;25.20;;;14.15;;
27199;SDS011;14714;48.106;11.546;2024-03-22T06:29:49;21.73;;;14.20;;
27199;SDS011;14714;48.106;11.546;2024-03-22T06:32:15;22.73;;;13.88;;
27199;SDS011;14714;48.106;11.546;2024-03-22T06:34:41;22.40;;;13.52;;
27199;SDS011;14714;48.106;11.546;2024-03-22T06:37:07;22.00;;;14.48;;
27199;SDS011;14714;48.106;11.546;2024-03-22T06:39:34;24.00;;;15.27;;
27199;SDS011;14714;48.106;11.546;2024-03-22T06:41:59;29.08;;;17.35;;
27199;SDS011;14714;48.106;11.546;2024-03-22T06:44:25;28.88;;;18.63;;
27199;SDS011;14714;48.106;11.546;2024-03-22T06:46:51;29.48;;;18.20;;
27199;SDS011;14714;48.106;11.546;2024-03-22T06:49:17;26.55;;;16.27;;
27199;SDS011;14714;48.106;11.546;2024-03-22T06:51:43;21.45;;;14.75;;
27199;SDS011;14714;48.106;11.546;2024-03-22T06:54:09;19.92;;;13.43;;
27199;SDS011;14714;48.106;11.546;2024-03-22T06:56:35;16.67;;;12.05;;
27199;SDS011;14714;48.106;11.546;2024-03-22T06:59:01;14.90;;;11.38;;
27199;SDS011;14714;48.106;11.546;2024-03-22T07:01:27;15.30;;;10.43;;
27199;SDS011;14714;48.106;11.546;2024-03-22T07:03:53;19.20;;;12.43;;
27199;SDS011;14714;48.106;11.546;2024-03-22T07:06:19;16.98;;;10.75;;
27199;SDS011;14714;48.106;11.546;2024-03-22T07:08:45;15.25;;;10.15;;
27199;SDS011;14714;48.106;11.546;2024-03-22T07:11:11;16.33;;;9.00;;
27199;SDS011;14714;48.106;11.546;2024-03-22T07:13:37;10.55;;;8.40;;
27199;SDS011;14714;48.106;11.546;2024-03-22T07:16:03;13.45;;;8.35;;
27199;SDS011;14714;48.106;11.546;2024-03-22T07:18:30;11.50;;;7.63;;
27199;SDS011;14714;48.106;11.546;2024-03-22T07:20:56;9.52;;;7.07;;
27199;SDS011;14714;48.106;11.546;2024-03-22T07:23:23;10.73;;;6.13;;
27199;SDS011;14714;48.106;11.546;2024-03-22T07:25:49;8.70;;;6.72;;
27199;SDS011;14714;48.106;11.546;2024-03-22T07:28:15;13.18;;;6.80;;
27199;SDS011;14714;48.106;11.546;2024-03-22T07:30:41;10.27;;;6.45;;
27199;SDS011;14714;48.106;11.546;2024-03-22T07:33:07;8.70;;;6.25;;
27199;SDS011;14714;48.106;11.546;2024-03-22T07:35:35;10.48;;;6.70;;
27199;SDS011;14714;48.106;11.546;2024-03-22T07:38:01;11.75;;;6.68;;
27199;SDS011;14714;48.106;11.546;2024-03-22T07:40:27;8.05;;;6.15;;
27199;SDS011;14714;48.106;11.546;2024-03-22T07:42:53;8.05;;;6.10;;
27199;SDS011;14714;48.106;11.546;2024-03-22T07:45:19;7.15;;;5.85;;
27199;SDS011;14714;48.106;11.546;2024-03-22T07:47:45;9.70;;;6.53;;
27199;SDS011;14714;48.106;11.546;2024-03-22T07:50:11;10.88;;;6.43;;
27199;SDS011;14714;48.106;11.546;2024-03-22T07:52:37;8.50;;;6.13;;
27199;SDS011;14714;48.106;11.546;2024-03-22T07:55:03;8.05;;;5.93;;
27199;SDS011;14714;48.106;11.546;2024-03-22T07:57:29;8.40;;;6.07;;
27199;SDS011;14714;48.106;11.546;2024-03-22T07:59:56;9.10;;;5.97;;
27199;SDS011;14714;48.106;11.546;2024-03-22T08:02:23;8.50;;;5.55;;
27199;SDS011;14714;48.106;11.546;2024-03-22T08:04:49;8.45;;;5.78;;
27199;SDS011;14714;48.106;11.546;2024-03-22T08:07:15;7.53;;;5.40;;
27199;SDS011;14714;48.106;11.546;2024-03-22T08:09:41;7.35;;;5.45;;
27199;SDS011;14714;48.106;11.546;2024-03-22T08:12:07;5.82;;;5.22;;
27199;SDS011;14714;48.106;11.546;2024-03-22T08:14:33;8.88;;;5.10;;
27199;SDS011;14714;48.106;11.546;2024-03-22T08:16:59;7.93;;;5.50;;
27199;SDS011;14714;48.106;11.546;2024-03-22T08:19:25;6.18;;;4.65;;
27199;SDS011;14714;48.106;11.546;2024-03-22T08:21:51;9.20;;;4.43;;
27199;SDS011;14714;48.106;11.546;2024-03-22T08:24:18;7.30;;;4.80;;
27199;SDS011;14714;48.106;11.546;2024-03-22T08:26:44;7.93;;;4.40;;
27199;SDS011;14714;48.106;11.546;2024-03-22T08:29:15;6.32;;;4.25;;
27199;SDS011;14714;48.106;11.546;2024-03-22T08:31:41;5.63;;;3.90;;
27199;SDS011;14714;48.106;11.546;2024-03-22T08:34:07;5.30;;;4.20;;
27199;SDS011;14714;48.106;11.546;2024-03-22T08:36:34;4.35;;;3.80;;
27199;SDS011;14714;48.106;11.546;2024-03-22T08:39:00;6.18;;;4.22;;
27199;SDS011;14714;48.106;11.546;2024-03-22T08:41:26;5.53;;;3.50;;
27199;SDS011;14714;48.106;11.546;2024-03-22T08:43:53;6.43;;;3.53;;
27199;SDS011;14714;48.106;11.546;2024-03-22T08:46:19;3.85;;;3.42;;
27199;SDS011;14714;48.106;11.546;2024-03-22T08:48:46;7.93;;;3.40;;
27199;SDS011;14714;48.106;11.546;2024-03-22T08:51:13;5.78;;;3.13;;
27199;SDS011;14714;48.106;11.546;2024-03-22T08:53:39;5.70;;;3.63;;
27199;SDS011;14714;48.106;11.546;2024-03-22T08:56:05;6.93;;;3.45;;
27199;SDS011;14714;48.106;11.546;2024-03-22T08:58:31;5.88;;;3.30;;
27199;SDS011;14714;48.106;11.546;2024-03-22T09:00:57;5.68;;;3.05;;
27199;SDS011;14714;48.106;11.546;2024-03-22T09:03:23;5.53;;;3.35;;
27199;SDS011;14714;48.106;11.546;2024-03-22T09:05:52;5.78;;;3.50;;
27199;SDS011;14714;48.106;11.546;2024-03-22T09:08:19;5.22;;;3.53;;
27199;SDS011;14714;48.106;11.546;2024-03-22T09:10:47;3.85;;;3.00;;
27199;SDS011;14714;48.106;11.546;2024-03-22T09:13:13;6.55;;;3.45;;
27199;SDS011;14714;48.106;11.546;2024-03-22T09:15:39;4.88;;;3.30;;
27199;SDS011;14714;48.106;11.546;2024-03-22T09:18:05;6.10;;;3.38;;
27199;SDS011;14714;48.106;11.546;2024-03-22T09:20:32;5.90;;;3.50;;
27199;SDS011;14714;48.106;11.546;2024-03-22T09:22:59;5.72;;;3.17;;
27199;SDS011;14714;48.106;11.546;2024-03-22T09:25:25;5.18;;;3.38;;
27199;SDS011;14714;48.106;11.546;2024-03-22T09:27:51;5.43;;;3.42;;
27199;SDS011;14714;48.106;11.546;2024-03-22T09:30:17;3.90;;;2.90;;
27199;SDS011;14714;48.106;11.546;2024-03-22T09:32:43;7.95;;;3.30;;
27199;SDS011;14714;48.106;11.546;2024-03-22T09:35:09;3.97;;;3.40;;
27199;SDS011;14714;48.106;11.546;2024-03-22T09:37:37;5.97;;;3.03;;
27199;SDS011;14714;48.106;11.546;2024-03-22T09:40:03;4.90;;;3.30;;
27199;SDS011;14714;48.106;11.546;2024-03-22T09:45:00;4.50;;;2.97;;
27199;SDS011;14714;48.106;11.546;2024-03-22T09:47:28;7.70;;;2.72;;
27199;SDS011;14714;48.106;11.546;2024-03-22T09:49:54;3.90;;;2.58;;
27199;SDS011;14714;48.106;11.546;2024-03-22T09:52:21;3.50;;;2.60;;
27199;SDS011;14714;48.106;11.546;2024-03-22T09:54:48;5.25;;;2.83;;
27199;SDS011;14714;48.106;11.546;2024-03-22T09:57:14;4.68;;;3.50;;
27199;SDS011;14714;48.106;11.546;2024-03-22T09:59:47;5.78;;;3.22;;
27199;SDS011;14714;48.106;11.546;2024-03-22T10:02:13;4.72;;;2.92;;
27199;SDS011;14714;48.106;11.546;2024-03-22T10:04:40;4.15;;;2.90;;
27199;SDS011;14714;48.106;11.546;2024-03-22T10:07:06;5.55;;;3.40;;
27199;SDS011;14714;48.106;11.546;2024-03-22T10:09:36;5.85;;;2.92;;
27199;SDS011;14714;48.106;11.546;2024-03-22T10:12:03;4.38;;;3.13;;
27199;SDS011;14714;48.106;11.546;2024-03-22T10:14:29;4.30;;;3.00;;
27199;SDS011;14714;48.106;11.546;2024-03-22T10:16:56;5.78;;;3.33;;
27199;SDS011;14714;48.106;11.546;2024-03-22T10:19:23;4.82;;;3.40;;
27199;SDS011;14714;48.106;11.546;2024-03-22T10:22:07;4.55;;;3.22;;
27199;SDS011;14714;48.106;11.546;2024-03-22T10:24:33;5.80;;;3.35;;
27199;SDS011;14714;48.106;11.546;2024-03-22T10:26:59;6.13;;;3.22;;
27199;SDS011;14714;48.106;11.546;2024-03-22T10:29:26;4.00;;;3.20;;
27199;SDS011;14714;48.106;11.546;2024-03-22T10:31:52;4.78;;;3.53;;
27199;SDS011;14714;48.106;11.546;2024-03-22T10:34:20;4.82;;;3.40;;
27199;SDS011;14714;48.106;11.546;2024-03-22T10:39:18;4.63;;;3.22;;
27199;SDS011;14714;48.106;11.546;2024-03-22T10:41:47;3.90;;;3.38;;
27199;SDS011;14714;48.106;11.546;2024-03-22T10:44:14;4.90;;;3.47;;
27199;SDS011;14714;48.106;11.546;2024-03-22T10:46:44;5.43;;;3.22;;
27199;SDS011;14714;48.106;11.546;2024-03-22T10:49:16;4.50;;;3.20;;
27199;SDS011;14714;48.106;11.546;2024-03-22T10:51:59;5.30;;;3.40;;
27199;SDS011;14714;48.106;11.546;2024-03-22T10:54:28;4.78;;;3.50;;
27199;SDS011;14714;48.106;11.546;2024-03-22T10:57:00;5.00;;;3.20;;
27199;SDS011;14714;48.106;11.546;2024-03-22T10:59:27;5.43;;;3.60;;
27199;SDS011;14714;48.106;11.546;2024-03-22T11:02:05;6.25;;;3.72;;
27199;SDS011;14714;48.106;11.546;2024-03-22T11:04:32;4.97;;;3.78;;
27199;SDS011;14714;48.106;11.546;2024-03-22T11:06:59;7.03;;;3.88;;
27199;SDS011;14714;48.106;11.546;2024-03-22T11:09:26;6.63;;;3.97;;
27199;SDS011;14714;48.106;11.546;2024-03-22T11:11:52;4.18;;;3.50;;
27199;SDS011;14714;48.106;11.546;2024-03-22T11:14:19;6.43;;;3.40;;
27199;SDS011;14714;48.106;11.546;2024-03-22T11:16:51;7.45;;;3.70;;
27199;SDS011;14714;48.106;11.546;2024-03-22T11:19:18;6.32;;;3.65;;
27199;SDS011;14714;48.106;11.546;2024-03-22T11:21:44;4.35;;;3.60;;
27199;SDS011;14714;48.106;11.546;2024-03-22T11:24:10;7.95;;;4.00;;
27199;SDS011;14714;48.106;11.546;2024-03-22T11:26:36;6.88;;;3.38;;
27199;SDS011;14714;48.106;11.546;2024-03-22T11:29:03;5.20;;;3.33;;
27199;SDS011;14714;48.106;11.546;2024-03-22T11:31:29;5.22;;;2.90;;
27199;SDS011;14714;48.106;11.546;2024-03-22T11:33:55;8.52;;;3.17;;
27199;SDS011;14714;48.106;11.546;2024-03-22T11:36:22;5.60;;;2.95;;
27199;SDS011;14714;48.106;11.546;2024-03-22T11:38:48;6.18;;;3.90;;
27199;SDS011;14714;48.106;11.546;2024-03-22T11:41:19;5.85;;;3.67;;
27199;SDS011;14714;48.106;11.546;2024-03-22T11:43:51;5.72;;;3.65;;
27199;SDS011;14714;48.106;11.546;2024-03-22T11:46:18;7.50;;;3.03;;
27199;SDS011;14714;48.106;11.546;2024-03-22T11:48:50;7.45;;;4.00;;
27199;SDS011;14714;48.106;11.546;2024-03-22T11:51:16;7.10;;;3.90;;
27199;SDS011;14714;48.106;11.546;2024-03-22T11:53:48;5.63;;;3.92;;
27199;SDS011;14714;48.106;11.546;2024-03-22T11:56:22;6.85;;;4.32;;
27199;SDS011;14714;48.106;11.546;2024-03-22T11:58:57;7.40;;;4.35;;
27199;SDS011;14714;48.106;11.546;2024-03-22T12:01:24;8.05;;;4.15;;
27199;SDS011;14714;48.106;11.546;2024-03-22T12:03:50;6.85;;;4.43;;
27199;SDS011;14714;48.106;11.546;2024-03-22T12:06:17;8.77;;;4.50;;
27199;SDS011;14714;48.106;11.546;2024-03-22T12:08:42;6.70;;;4.38;;
27199;SDS011;14714;48.106;11.546;2024-03-22T12:11:09;7.28;;;4.28;;
27199;SDS011;14714;48.106;11.546;2024-03-22T12:13:35;8.70;;;3.78;;
27199;SDS011;14714;48.106;11.546;2024-03-22T12:16:03;5.55;;;4.18;;
27199;SDS011;14714;48.106;11.546;2024-03-22T12:18:30;4.90;;;3.97;;
27199;SDS011;14714;48.106;11.546;2024-03-22T12:20:56;6.85;;;4.55;;
27199;SDS011;14714;48.106;11.546;2024-03-22T12:23:22;5.93;;;4.00;;
27199;SDS011;14714;48.106;11.546;2024-03-22T12:25:49;6.90;;;4.32;;
27199;SDS011;14714;48.106;11.546;2024-03-22T12:28:16;4.72;;;4.10;;
27199;SDS011;14714;48.106;11.546;2024-03-22T12:30:42;5.97;;;3.78;;
27199;SDS011;14714;48.106;11.546;2024-03-22T12:33:09;4.75;;;3.97;;
27199;SDS011;14714;48.106;11.546;2024-03-22T12:35:39;6.20;;;4.05;;
27199;SDS011;14714;48.106;11.546;2024-03-22T12:38:06;7.30;;;4.00;;
27199;SDS011;14714;48.106;11.546;2024-03-22T12:40:36;6.80;;;4.00;;
27199;SDS011;14714;48.106;11.546;2024-03-22T12:43:02;5.32;;;3.90;;
27199;SDS011;14714;48.106;11.546;2024-03-22T12:45:29;5.90;;;4.00;;
27199;SDS011;14714;48.106;11.546;2024-03-22T12:47:55;4.55;;;3.13;;
27199;SDS011;14714;48.106;11.546;2024-03-22T12:50:21;6.47;;;3.72;;
27199;SDS011;14714;48.106;11.546;2024-03-22T12:52:47;7.70;;;4.10;;
27199;SDS011;14714;48.106;11.546;2024-03-22T12:55:13;7.82;;;4.07;;
27199;SDS011;14714;48.106;11.546;2024-03-22T12:57:39;6.50;;;3.90;;
27199;SDS011;14714;48.106;11.546;2024-03-22T13:00:06;6.22;;;3.33;;
27199;SDS011;14714;48.106;11.546;2024-03-22T13:02:41;9.88;;;4.25;;
27199;SDS011;14714;48.106;11.546;2024-03-22T13:05:07;7.18;;;4.05;;
27199;SDS011;14714;48.106;11.546;2024-03-22T13:07:34;5.03;;;2.63;;
27199;SDS011;14714;48.106;11.546;2024-03-22T13:10:00;6.05;;;3.05;;
27199;SDS011;14714;48.106;11.546;2024-03-22T13:12:26;5.85;;;3.97;;
27199;SDS011;14714;48.106;11.546;2024-03-22T13:14:54;6.00;;;3.92;;
27199;SDS011;14714;48.106;11.546;2024-03-22T13:17:20;7.63;;;4.00;;
27199;SDS011;14714;48.106;11.546;2024-03-22T13:19:46;4.47;;;2.50;;
27199;SDS011;14714;48.106;11.546;2024-03-22T13:22:12;3.63;;;2.63;;
27199;SDS011;14714;48.106;11.546;2024-03-22T13:24:38;5.63;;;3.20;;
27199;SDS011;14714;48.106;11.546;2024-03-22T13:27:04;4.07;;;2.60;;
27199;SDS011;14714;48.106;11.546;2024-03-22T13:29:30;7.38;;;3.33;;
27199;SDS011;14714;48.106;11.546;2024-03-22T13:31:57;6.18;;;3.28;;
27199;SDS011;14714;48.106;11.546;2024-03-22T13:34:23;7.30;;;2.67;;
27199;SDS011;14714;48.106;11.546;2024-03-22T13:36:48;4.45;;;2.20;;
27199;SDS011;14714;48.106;11.546;2024-03-22T13:39:15;6.97;;;2.58;;
27199;SDS011;14714;48.106;11.546;2024-03-22T13:41:41;4.30;;;2.50;;
27199;SDS011;14714;48.106;11.546;2024-03-22T13:44:07;2.65;;;2.00;;
27199;SDS011;14714;48.106;11.546;2024-03-22T13:46:33;4.75;;;2.40;;
27199;SDS011;14714;48.106;11.546;2024-03-22T13:49:12;2.70;;;2.10;;
27199;SDS011;14714;48.106;11.546;2024-03-22T13:51:46;5.88;;;2.38;;
27199;SDS011;14714;48.106;11.546;2024-03-22T13:54:13;5.85;;;1.85;;
27199;SDS011;14714;48.106;11.546;2024-03-22T13:56:39;4.25;;;2.63;;
27199;SDS011;14714;48.106;11.546;2024-03-22T13:59:06;3.00;;;2.00;;
27199;SDS011;14714;48.106;11.546;2024-03-22T14:01:35;3.42;;;2.50;;
27199;SDS011;14714;48.106;11.546;2024-03-22T14:04:05;3.58;;;2.33;;
27199;SDS011;14714;48.106;11.546;2024-03-22T14:06:31;3.80;;;2.17;;
27199;SDS011;14714;48.106;11.546;2024-03-22T14:08:59;2.10;;;1.90;;
27199;SDS011;14714;48.106;11.546;2024-03-22T14:11:29;3.63;;;1.88;;
27199;SDS011;14714;48.106;11.546;2024-03-22T14:13:56;2.95;;;1.90;;
27199;SDS011;14714;48.106;11.546;2024-03-22T14:16:22;2.45;;;1.90;;
27199;SDS011;14714;48.106;11.546;2024-03-22T14:18:48;4.93;;;2.00;;
27199;SDS011;14714;48.106;11.546;2024-03-22T14:21:15;5.07;;;1.92;;
27199;SDS011;14714;48.106;11.546;2024-03-22T14:23:45;4.18;;;1.85;;